sensor_id;sensor_type;location;lat;lon;timestamp;temperature;humidity
20560;DHT22;10438;51.454;6.718;2023-09-19T00:01:06;16.20;99.90
20560;DHT22;10438;51.454;6.718;2023-09-19T00:03:37;16.20;99.90
20560;DHT22;10438;51.454;6.718;2023-09-19T00:06:04;16.10;99.90
20560;DHT22;10438;51.454;6.718;2023-09-19T00:08:30;16.10;99.90
20560;DHT22;10438;51.454;6.718;2023-09-19T00:10:56;16.10;99.90
20560;DHT22;10438;51.454;6.718;2023-09-19T00:13:29;16.10;99.90
20560;DHT22;10438;51.454;6.718;2023-09-19T00:15:56;16.00;99.90
20560;DHT22;10438;51.454;6.718;2023-09-19T00:18:24;16.00;99.90
20560;DHT22;10438;51.454;6.718;2023-09-19T00:20:58;16.10;99.90
20560;DHT22;10438;51.454;6.718;2023-09-19T00:23:24;16.10;99.90
20560;DHT22;10438;51.454;6.718;2023-09-19T00:25:50;16.00;99.90
20560;DHT22;10438;51.454;6.718;2023-09-19T00:28:17;16.00;99.90
20560;DHT22;10438;51.454;6.718;2023-09-19T00:30:44;16.00;99.90
20560;DHT22;10438;51.454;6.718;2023-09-19T00:33:10;16.00;99.90
20560;DHT22;10438;51.454;6.718;2023-09-19T00:35:37;16.00;99.90
20560;DHT22;10438;51.454;6.718;2023-09-19T00:38:02;16.00;99.90
20560;DHT22;10438;51.454;6.718;2023-09-19T00:40:29;16.00;99.90
20560;DHT22;10438;51.454;6.718;2023-09-19T00:42:58;15.90;99.90
20560;DHT22;10438;51.454;6.718;2023-09-19T00:45:27;15.80;99.90
20560;DHT22;10438;51.454;6.718;2023-09-19T00:47:54;15.90;99.90
20560;DHT22;10438;51.454;6.718;2023-09-19T00:50:22;15.80;99.90
20560;DHT22;10438;51.454;6.718;2023-09-19T00:52:48;15.80;99.90
20560;DHT22;10438;51.454;6.718;2023-09-19T00:55:16;15.70;99.90
20560;DHT22;10438;51.454;6.718;2023-09-19T00:57:42;15.70;99.90
20560;DHT22;10438;51.454;6.718;2023-09-19T01:00:10;15.70;99.90
20560;DHT22;10438;51.454;6.718;2023-09-19T01:02:37;15.70;99.90
20560;DHT22;10438;51.454;6.718;2023-09-19T01:05:03;15.60;99.90
20560;DHT22;10438;51.454;6.718;2023-09-19T01:07:33;15.60;99.90
20560;DHT22;10438;51.454;6.718;2023-09-19T01:09:59;15.60;99.90
20560;DHT22;10438;51.454;6.718;2023-09-19T01:18:40;15.50;99.90
20560;DHT22;10438;51.454;6.718;2023-09-19T01:21:28;15.40;99.90
20560;DHT22;10438;51.454;6.718;2023-09-19T01:32:06;15.40;99.90
20560;DHT22;10438;51.454;6.718;2023-09-19T01:34:53;15.40;99.90
20560;DHT22;10438;51.454;6.718;2023-09-19T01:37:21;15.40;99.90
20560;DHT22;10438;51.454;6.718;2023-09-19T01:40:18;15.30;99.90
20560;DHT22;10438;51.454;6.718;2023-09-19T01:42:49;15.30;99.90
20560;DHT22;10438;51.454;6.718;2023-09-19T01:47:55;15.30;99.90
20560;DHT22;10438;51.454;6.718;2023-09-19T01:50:59;15.30;99.90
20560;DHT22;10438;51.454;6.718;2023-09-19T01:53:28;15.20;99.90
20560;DHT22;10438;51.454;6.718;2023-09-19T01:55:57;15.20;99.90
20560;DHT22;10438;51.454;6.718;2023-09-19T01:58:34;15.20;99.90
20560;DHT22;10438;51.454;6.718;2023-09-19T02:01:04;15.20;99.90
20560;DHT22;10438;51.454;6.718;2023-09-19T02:03:31;15.20;99.90
20560;DHT22;10438;51.454;6.718;2023-09-19T02:05:58;15.20;99.90
20560;DHT22;10438;51.454;6.718;2023-09-19T02:08:24;15.10;99.90
20560;DHT22;10438;51.454;6.718;2023-09-19T02:10:50;15.20;99.90
20560;DHT22;10438;51.454;6.718;2023-09-19T02:13:17;15.10;99.90
20560;DHT22;10438;51.454;6.718;2023-09-19T02:15:43;15.10;99.90
20560;DHT22;10438;51.454;6.718;2023-09-19T02:18:10;15.10;99.90
20560;DHT22;10438;51.454;6.718;2023-09-19T02:20:37;15.10;99.90
20560;DHT22;10438;51.454;6.718;2023-09-19T02:23:03;15.10;99.90
20560;DHT22;10438;51.454;6.718;2023-09-19T02:25:28;15.00;99.90
20560;DHT22;10438;51.454;6.718;2023-09-19T02:27:54;15.00;99.90
20560;DHT22;10438;51.454;6.718;2023-09-19T02:30:24;15.00;99.90
20560;DHT22;10438;51.454;6.718;2023-09-19T02:32:51;15.00;99.90
20560;DHT22;10438;51.454;6.718;2023-09-19T02:35:17;15.00;99.90
20560;DHT22;10438;51.454;6.718;2023-09-19T02:37:45;15.00;99.90
20560;DHT22;10438;51.454;6.718;2023-09-19T02:40:11;15.00;99.90
20560;DHT22;10438;51.454;6.718;2023-09-19T02:42:54;14.90;99.90
20560;DHT22;10438;51.454;6.718;2023-09-19T02:45:20;14.90;99.90
20560;DHT22;10438;51.454;6.718;2023-09-19T02:47:46;14.90;99.90
20560;DHT22;10438;51.454;6.718;2023-09-19T02:50:13;14.90;99.90
20560;DHT22;10438;51.454;6.718;2023-09-19T02:52:42;14.90;99.90
20560;DHT22;10438;51.454;6.718;2023-09-19T02:55:14;14.90;99.90
20560;DHT22;10438;51.454;6.718;2023-09-19T02:57:54;14.90;99.90
20560;DHT22;10438;51.454;6.718;2023-09-19T03:00:21;14.90;99.90
20560;DHT22;10438;51.454;6.718;2023-09-19T03:02:48;14.90;99.90
20560;DHT22;10438;51.454;6.718;2023-09-19T03:05:14;14.90;99.90
20560;DHT22;10438;51.454;6.718;2023-09-19T03:07:40;14.80;99.90
20560;DHT22;10438;51.454;6.718;2023-09-19T03:10:09;14.80;99.90
20560;DHT22;10438;51.454;6.718;2023-09-19T03:12:35;14.80;99.90
20560;DHT22;10438;51.454;6.718;2023-09-19T03:15:01;14.80;99.90
20560;DHT22;10438;51.454;6.718;2023-09-19T03:17:27;14.80;99.90
20560;DHT22;10438;51.454;6.718;2023-09-19T03:19:52;14.80;99.90
20560;DHT22;10438;51.454;6.718;2023-09-19T03:22:19;14.80;99.90
20560;DHT22;10438;51.454;6.718;2023-09-19T03:24:45;14.70;99.90
20560;DHT22;10438;51.454;6.718;2023-09-19T03:27:12;14.80;99.90
20560;DHT22;10438;51.454;6.718;2023-09-19T03:29:42;14.80;99.90
20560;DHT22;10438;51.454;6.718;2023-09-19T03:32:07;14.70;99.90
20560;DHT22;10438;51.454;6.718;2023-09-19T03:34:36;14.70;99.90
20560;DHT22;10438;51.454;6.718;2023-09-19T03:37:03;14.70;99.90
20560;DHT22;10438;51.454;6.718;2023-09-19T03:39:29;14.70;99.90
20560;DHT22;10438;51.454;6.718;2023-09-19T03:41:54;14.70;99.90
20560;DHT22;10438;51.454;6.718;2023-09-19T03:44:20;14.70;99.90
20560;DHT22;10438;51.454;6.718;2023-09-19T03:46:45;14.60;99.90
20560;DHT22;10438;51.454;6.718;2023-09-19T03:49:11;14.60;99.90
20560;DHT22;10438;51.454;6.718;2023-09-19T03:51:36;14.70;99.90
20560;DHT22;10438;51.454;6.718;2023-09-19T03:54:03;14.60;99.90
20560;DHT22;10438;51.454;6.718;2023-09-19T03:56:29;14.60;99.90
20560;DHT22;10438;51.454;6.718;2023-09-19T03:58:55;14.70;99.90
20560;DHT22;10438;51.454;6.718;2023-09-19T04:01:20;14.60;99.90
20560;DHT22;10438;51.454;6.718;2023-09-19T04:03:46;14.60;99.90
20560;DHT22;10438;51.454;6.718;2023-09-19T04:06:13;14.60;99.90
20560;DHT22;10438;51.454;6.718;2023-09-19T04:08:39;14.60;99.90
20560;DHT22;10438;51.454;6.718;2023-09-19T04:11:05;14.60;99.90
20560;DHT22;10438;51.454;6.718;2023-09-19T04:13:31;14.60;99.90
20560;DHT22;10438;51.454;6.718;2023-09-19T04:15:56;14.60;99.90
20560;DHT22;10438;51.454;6.718;2023-09-19T04:18:22;14.60;99.90
20560;DHT22;10438;51.454;6.718;2023-09-19T04:20:51;14.60;99.90
20560;DHT22;10438;51.454;6.718;2023-09-19T04:23:17;14.50;99.90
20560;DHT22;10438;51.454;6.718;2023-09-19T04:25:45;14.60;99.90
20560;DHT22;10438;51.454;6.718;2023-09-19T04:28:11;14.60;99.90
20560;DHT22;10438;51.454;6.718;2023-09-19T04:30:37;14.60;99.90
20560;DHT22;10438;51.454;6.718;2023-09-19T04:33:03;14.60;99.90
20560;DHT22;10438;51.454;6.718;2023-09-19T04:35:28;14.60;99.90
20560;DHT22;10438;51.454;6.718;2023-09-19T04:37:57;14.60;99.90
20560;DHT22;10438;51.454;6.718;2023-09-19T04:40:22;14.60;99.90
20560;DHT22;10438;51.454;6.718;2023-09-19T04:42:53;14.70;99.90
20560;DHT22;10438;51.454;6.718;2023-09-19T04:45:26;14.60;99.90
20560;DHT22;10438;51.454;6.718;2023-09-19T04:47:52;14.60;99.90
20560;DHT22;10438;51.454;6.718;2023-09-19T04:50:18;14.60;99.90
20560;DHT22;10438;51.454;6.718;2023-09-19T04:52:44;14.60;99.90
20560;DHT22;10438;51.454;6.718;2023-09-19T04:55:11;14.60;99.90
20560;DHT22;10438;51.454;6.718;2023-09-19T04:57:42;14.70;99.90
20560;DHT22;10438;51.454;6.718;2023-09-19T05:00:08;14.70;99.90
20560;DHT22;10438;51.454;6.718;2023-09-19T05:02:38;14.60;99.90
20560;DHT22;10438;51.454;6.718;2023-09-19T05:05:04;14.70;99.90
20560;DHT22;10438;51.454;6.718;2023-09-19T05:07:30;14.70;99.90
20560;DHT22;10438;51.454;6.718;2023-09-19T05:09:55;14.70;99.90
20560;DHT22;10438;51.454;6.718;2023-09-19T05:12:21;14.60;99.90
20560;DHT22;10438;51.454;6.718;2023-09-19T05:14:46;14.70;99.90
20560;DHT22;10438;51.454;6.718;2023-09-19T05:17:13;14.70;99.90
20560;DHT22;10438;51.454;6.718;2023-09-19T05:19:39;14.70;99.90
20560;DHT22;10438;51.454;6.718;2023-09-19T05:22:04;14.70;99.90
20560;DHT22;10438;51.454;6.718;2023-09-19T05:24:30;14.70;99.90
20560;DHT22;10438;51.454;6.718;2023-09-19T05:26:56;14.70;99.90
20560;DHT22;10438;51.454;6.718;2023-09-19T05:29:22;14.70;99.90
20560;DHT22;10438;51.454;6.718;2023-09-19T05:31:48;14.70;99.90
20560;DHT22;10438;51.454;6.718;2023-09-19T05:34:15;14.70;99.90
20560;DHT22;10438;51.454;6.718;2023-09-19T05:36:40;14.80;99.90
20560;DHT22;10438;51.454;6.718;2023-09-19T05:39:06;14.80;99.90
20560;DHT22;10438;51.454;6.718;2023-09-19T05:41:35;14.90;99.90
20560;DHT22;10438;51.454;6.718;2023-09-19T05:44:05;14.90;99.90
20560;DHT22;10438;51.454;6.718;2023-09-19T05:46:32;15.00;99.90
20560;DHT22;10438;51.454;6.718;2023-09-19T05:48:57;15.00;99.90
20560;DHT22;10438;51.454;6.718;2023-09-19T05:51:23;15.00;99.90
20560;DHT22;10438;51.454;6.718;2023-09-19T05:53:49;15.00;99.90
20560;DHT22;10438;51.454;6.718;2023-09-19T05:56:16;15.00;99.90
20560;DHT22;10438;51.454;6.718;2023-09-19T05:58:44;15.00;99.90
20560;DHT22;10438;51.454;6.718;2023-09-19T06:01:10;15.00;99.90
20560;DHT22;10438;51.454;6.718;2023-09-19T06:03:35;15.10;99.90
20560;DHT22;10438;51.454;6.718;2023-09-19T06:06:01;15.10;99.90
20560;DHT22;10438;51.454;6.718;2023-09-19T06:08:27;15.10;99.90
20560;DHT22;10438;51.454;6.718;2023-09-19T06:10:54;15.10;99.90
20560;DHT22;10438;51.454;6.718;2023-09-19T06:13:19;15.10;99.90
20560;DHT22;10438;51.454;6.718;2023-09-19T06:15:45;15.20;99.90
20560;DHT22;10438;51.454;6.718;2023-09-19T06:18:12;15.20;99.90
20560;DHT22;10438;51.454;6.718;2023-09-19T06:20:47;15.20;99.90
20560;DHT22;10438;51.454;6.718;2023-09-19T06:23:14;15.20;99.90
20560;DHT22;10438;51.454;6.718;2023-09-19T06:25:40;15.20;99.90
20560;DHT22;10438;51.454;6.718;2023-09-19T06:28:06;15.20;99.90
20560;DHT22;10438;51.454;6.718;2023-09-19T06:30:33;15.20;99.90
20560;DHT22;10438;51.454;6.718;2023-09-19T06:33:00;15.10;99.90
20560;DHT22;10438;51.454;6.718;2023-09-19T06:35:27;15.20;99.90
20560;DHT22;10438;51.454;6.718;2023-09-19T06:37:54;15.20;99.90
20560;DHT22;10438;51.454;6.718;2023-09-19T06:40:23;15.20;99.90
20560;DHT22;10438;51.454;6.718;2023-09-19T06:42:51;15.20;99.90
20560;DHT22;10438;51.454;6.718;2023-09-19T06:45:18;15.30;99.90
20560;DHT22;10438;51.454;6.718;2023-09-19T06:47:48;15.30;99.90
20560;DHT22;10438;51.454;6.718;2023-09-19T06:50:20;15.30;99.90
20560;DHT22;10438;51.454;6.718;2023-09-19T06:52:52;15.30;99.90
20560;DHT22;10438;51.454;6.718;2023-09-19T06:55:20;15.30;99.90
20560;DHT22;10438;51.454;6.718;2023-09-19T06:57:46;15.40;99.90
20560;DHT22;10438;51.454;6.718;2023-09-19T07:00:13;15.30;99.90
20560;DHT22;10438;51.454;6.718;2023-09-19T07:05:22;15.40;99.90
20560;DHT22;10438;51.454;6.718;2023-09-19T07:07:48;15.40;99.90
20560;DHT22;10438;51.454;6.718;2023-09-19T07:10:13;15.50;99.90
20560;DHT22;10438;51.454;6.718;2023-09-19T07:12:39;15.50;99.90
20560;DHT22;10438;51.454;6.718;2023-09-19T07:15:06;15.60;99.90
20560;DHT22;10438;51.454;6.718;2023-09-19T07:17:32;15.60;99.90
20560;DHT22;10438;51.454;6.718;2023-09-19T07:19:58;15.60;99.90
20560;DHT22;10438;51.454;6.718;2023-09-19T07:22:26;15.70;99.90
20560;DHT22;10438;51.454;6.718;2023-09-19T07:24:51;15.70;99.90
20560;DHT22;10438;51.454;6.718;2023-09-19T07:27:17;15.80;99.90
20560;DHT22;10438;51.454;6.718;2023-09-19T07:29:42;15.90;99.90
20560;DHT22;10438;51.454;6.718;2023-09-19T07:32:08;15.90;99.90
20560;DHT22;10438;51.454;6.718;2023-09-19T07:34:37;15.90;99.90
20560;DHT22;10438;51.454;6.718;2023-09-19T07:37:04;15.90;99.90
20560;DHT22;10438;51.454;6.718;2023-09-19T07:39:29;15.90;99.90
20560;DHT22;10438;51.454;6.718;2023-09-19T07:41:55;16.00;99.90
20560;DHT22;10438;51.454;6.718;2023-09-19T07:44:22;16.00;99.90
20560;DHT22;10438;51.454;6.718;2023-09-19T07:46:48;16.00;99.90
20560;DHT22;10438;51.454;6.718;2023-09-19T07:49:16;16.10;99.90
20560;DHT22;10438;51.454;6.718;2023-09-19T07:51:43;16.10;99.90
20560;DHT22;10438;51.454;6.718;2023-09-19T07:54:12;16.10;99.90
20560;DHT22;10438;51.454;6.718;2023-09-19T07:56:38;16.10;99.90
20560;DHT22;10438;51.454;6.718;2023-09-19T07:59:03;16.20;99.90
20560;DHT22;10438;51.454;6.718;2023-09-19T08:01:29;16.20;99.90
20560;DHT22;10438;51.454;6.718;2023-09-19T08:03:54;16.30;99.90
20560;DHT22;10438;51.454;6.718;2023-09-19T08:06:21;16.30;99.90
20560;DHT22;10438;51.454;6.718;2023-09-19T08:08:47;16.40;99.90
20560;DHT22;10438;51.454;6.718;2023-09-19T08:11:12;16.30;99.90
20560;DHT22;10438;51.454;6.718;2023-09-19T08:13:44;16.30;99.90
20560;DHT22;10438;51.454;6.718;2023-09-19T08:16:11;16.30;99.90
20560;DHT22;10438;51.454;6.718;2023-09-19T08:18:37;16.30;99.90
20560;DHT22;10438;51.454;6.718;2023-09-19T08:21:05;16.40;99.90
20560;DHT22;10438;51.454;6.718;2023-09-19T08:23:33;16.50;99.90
20560;DHT22;10438;51.454;6.718;2023-09-19T08:25:58;16.60;99.90
20560;DHT22;10438;51.454;6.718;2023-09-19T08:28:28;16.60;99.90
20560;DHT22;10438;51.454;6.718;2023-09-19T08:30:55;16.60;99.90
20560;DHT22;10438;51.454;6.718;2023-09-19T08:33:21;16.60;99.90
20560;DHT22;10438;51.454;6.718;2023-09-19T08:35:46;16.70;99.90
20560;DHT22;10438;51.454;6.718;2023-09-19T08:38:12;16.80;99.90
20560;DHT22;10438;51.454;6.718;2023-09-19T08:40:40;17.00;99.90
20560;DHT22;10438;51.454;6.718;2023-09-19T08:43:07;17.40;99.90
20560;DHT22;10438;51.454;6.718;2023-09-19T08:45:34;17.60;99.90
20560;DHT22;10438;51.454;6.718;2023-09-19T08:50:55;17.90;99.90
20560;DHT22;10438;51.454;6.718;2023-09-19T08:53:27;18.00;99.90
20560;DHT22;10438;51.454;6.718;2023-09-19T08:55:54;17.80;99.90
20560;DHT22;10438;51.454;6.718;2023-09-19T08:58:26;17.70;99.90
20560;DHT22;10438;51.454;6.718;2023-09-19T09:00:54;17.70;99.90
20560;DHT22;10438;51.454;6.718;2023-09-19T09:03:22;17.70;99.90
20560;DHT22;10438;51.454;6.718;2023-09-19T09:05:50;17.80;99.90
20560;DHT22;10438;51.454;6.718;2023-09-19T09:08:17;17.70;99.90
20560;DHT22;10438;51.454;6.718;2023-09-19T09:10:44;17.70;99.90
20560;DHT22;10438;51.454;6.718;2023-09-19T09:13:10;17.70;99.90
20560;DHT22;10438;51.454;6.718;2023-09-19T09:15:41;17.80;99.90
20560;DHT22;10438;51.454;6.718;2023-09-19T09:18:06;17.90;99.90
20560;DHT22;10438;51.454;6.718;2023-09-19T09:20:32;18.00;99.90
20560;DHT22;10438;51.454;6.718;2023-09-19T09:22:58;18.10;99.90
20560;DHT22;10438;51.454;6.718;2023-09-19T09:28:19;18.50;99.90
20560;DHT22;10438;51.454;6.718;2023-09-19T09:30:46;18.60;99.90
20560;DHT22;10438;51.454;6.718;2023-09-19T09:33:13;18.30;99.90
20560;DHT22;10438;51.454;6.718;2023-09-19T09:38:27;18.30;99.90
20560;DHT22;10438;51.454;6.718;2023-09-19T09:40:54;18.20;99.90
20560;DHT22;10438;51.454;6.718;2023-09-19T09:43:33;18.10;99.90
20560;DHT22;10438;51.454;6.718;2023-09-19T09:48:55;17.90;99.90
20560;DHT22;10438;51.454;6.718;2023-09-19T09:51:48;18.10;99.90
20560;DHT22;10438;51.454;6.718;2023-09-19T09:54:23;18.20;99.90
20560;DHT22;10438;51.454;6.718;2023-09-19T09:57:00;18.20;99.90
20560;DHT22;10438;51.454;6.718;2023-09-19T09:59:53;18.20;99.90
20560;DHT22;10438;51.454;6.718;2023-09-19T10:02:28;18.60;99.90
20560;DHT22;10438;51.454;6.718;2023-09-19T10:04:58;19.10;99.90
20560;DHT22;10438;51.454;6.718;2023-09-19T10:07:40;19.50;99.90
20560;DHT22;10438;51.454;6.718;2023-09-19T10:10:08;19.30;99.90
20560;DHT22;10438;51.454;6.718;2023-09-19T10:12:47;19.30;99.90
20560;DHT22;10438;51.454;6.718;2023-09-19T10:15:15;19.30;99.90
20560;DHT22;10438;51.454;6.718;2023-09-19T10:17:45;19.00;99.90
20560;DHT22;10438;51.454;6.718;2023-09-19T10:20:17;19.10;99.90
20560;DHT22;10438;51.454;6.718;2023-09-19T10:23:06;19.50;99.90
20560;DHT22;10438;51.454;6.718;2023-09-19T10:25:39;19.80;99.90
20560;DHT22;10438;51.454;6.718;2023-09-19T10:28:09;19.70;99.90
20560;DHT22;10438;51.454;6.718;2023-09-19T10:30:44;19.70;99.90
20560;DHT22;10438;51.454;6.718;2023-09-19T10:33:15;19.90;99.90
20560;DHT22;10438;51.454;6.718;2023-09-19T10:35:45;20.00;99.90
20560;DHT22;10438;51.454;6.718;2023-09-19T10:38:17;20.30;99.90
20560;DHT22;10438;51.454;6.718;2023-09-19T10:40:44;20.20;99.90
20560;DHT22;10438;51.454;6.718;2023-09-19T10:43:17;19.90;99.90
20560;DHT22;10438;51.454;6.718;2023-09-19T10:45:47;19.90;99.90
20560;DHT22;10438;51.454;6.718;2023-09-19T10:48:18;20.10;99.90
20560;DHT22;10438;51.454;6.718;2023-09-19T10:50:52;20.30;99.90
20560;DHT22;10438;51.454;6.718;2023-09-19T10:53:20;20.40;99.90
20560;DHT22;10438;51.454;6.718;2023-09-19T10:55:52;20.10;99.90
20560;DHT22;10438;51.454;6.718;2023-09-19T10:58:31;20.30;99.90
20560;DHT22;10438;51.454;6.718;2023-09-19T11:01:00;20.60;99.90
20560;DHT22;10438;51.454;6.718;2023-09-19T11:03:38;20.50;99.90
20560;DHT22;10438;51.454;6.718;2023-09-19T11:06:13;20.50;99.90
20560;DHT22;10438;51.454;6.718;2023-09-19T11:08:51;20.40;99.90
20560;DHT22;10438;51.454;6.718;2023-09-19T11:30:45;20.60;99.90
20560;DHT22;10438;51.454;6.718;2023-09-19T11:33:17;20.30;99.90
20560;DHT22;10438;51.454;6.718;2023-09-19T11:36:13;20.10;99.90
20560;DHT22;10438;51.454;6.718;2023-09-19T11:46:52;20.30;99.90
20560;DHT22;10438;51.454;6.718;2023-09-19T11:49:18;20.70;99.90
20560;DHT22;10438;51.454;6.718;2023-09-19T11:51:51;20.70;99.90
20560;DHT22;10438;51.454;6.718;2023-09-19T11:54:17;20.80;99.90
20560;DHT22;10438;51.454;6.718;2023-09-19T11:56:56;20.80;99.90
20560;DHT22;10438;51.454;6.718;2023-09-19T11:59:24;20.80;99.90
20560;DHT22;10438;51.454;6.718;2023-09-19T12:01:55;21.20;99.90
20560;DHT22;10438;51.454;6.718;2023-09-19T12:04:43;21.40;99.90
20560;DHT22;10438;51.454;6.718;2023-09-19T12:07:12;21.50;99.90
20560;DHT22;10438;51.454;6.718;2023-09-19T12:09:48;21.60;99.90
20560;DHT22;10438;51.454;6.718;2023-09-19T12:12:25;21.50;99.90
20560;DHT22;10438;51.454;6.718;2023-09-19T12:14:54;21.00;99.90
20560;DHT22;10438;51.454;6.718;2023-09-19T12:17:22;21.10;99.90
20560;DHT22;10438;51.454;6.718;2023-09-19T12:19:53;21.40;99.90
20560;DHT22;10438;51.454;6.718;2023-09-19T12:22:19;21.70;99.90
20560;DHT22;10438;51.454;6.718;2023-09-19T12:24:46;21.80;99.90
20560;DHT22;10438;51.454;6.718;2023-09-19T12:27:12;21.90;99.90
20560;DHT22;10438;51.454;6.718;2023-09-19T12:32:08;22.00;99.90
20560;DHT22;10438;51.454;6.718;2023-09-19T12:34:34;21.90;98.90
20560;DHT22;10438;51.454;6.718;2023-09-19T12:37:13;21.60;99.90
20560;DHT22;10438;51.454;6.718;2023-09-19T12:39:45;21.70;99.90
20560;DHT22;10438;51.454;6.718;2023-09-19T12:42:26;21.80;99.90
20560;DHT22;10438;51.454;6.718;2023-09-19T12:44:57;21.70;99.90
20560;DHT22;10438;51.454;6.718;2023-09-19T12:47:27;21.70;99.90
20560;DHT22;10438;51.454;6.718;2023-09-19T12:50:10;21.60;99.90
20560;DHT22;10438;51.454;6.718;2023-09-19T12:52:48;21.70;99.90
20560;DHT22;10438;51.454;6.718;2023-09-19T12:55:21;21.90;98.00
20560;DHT22;10438;51.454;6.718;2023-09-19T12:58:07;21.70;99.90
20560;DHT22;10438;51.454;6.718;2023-09-19T13:00:44;21.30;99.90
20560;DHT22;10438;51.454;6.718;2023-09-19T13:03:26;21.10;99.90
20560;DHT22;10438;51.454;6.718;2023-09-19T13:06:03;20.90;99.90
20560;DHT22;10438;51.454;6.718;2023-09-19T13:08:37;20.90;99.90
20560;DHT22;10438;51.454;6.718;2023-09-19T13:13:34;21.00;99.90
20560;DHT22;10438;51.454;6.718;2023-09-19T13:16:02;20.80;99.90
20560;DHT22;10438;51.454;6.718;2023-09-19T13:18:28;20.50;99.90
20560;DHT22;10438;51.454;6.718;2023-09-19T13:21:11;20.60;99.90
20560;DHT22;10438;51.454;6.718;2023-09-19T13:23:51;20.40;99.90
20560;DHT22;10438;51.454;6.718;2023-09-19T13:26:17;20.40;99.90
20560;DHT22;10438;51.454;6.718;2023-09-19T13:28:43;20.40;99.90
20560;DHT22;10438;51.454;6.718;2023-09-19T13:31:10;20.30;99.90
20560;DHT22;10438;51.454;6.718;2023-09-19T13:33:48;20.10;99.90
20560;DHT22;10438;51.454;6.718;2023-09-19T13:36:15;20.00;99.90
20560;DHT22;10438;51.454;6.718;2023-09-19T13:38:41;20.00;99.90
20560;DHT22;10438;51.454;6.718;2023-09-19T13:41:10;20.00;99.90
20560;DHT22;10438;51.454;6.718;2023-09-19T13:43:37;20.00;99.90
20560;DHT22;10438;51.454;6.718;2023-09-19T13:46:03;19.90;99.90
20560;DHT22;10438;51.454;6.718;2023-09-19T13:48:29;19.80;99.90
20560;DHT22;10438;51.454;6.718;2023-09-19T13:50:55;19.80;99.90
20560;DHT22;10438;51.454;6.718;2023-09-19T13:53:21;19.80;99.90
20560;DHT22;10438;51.454;6.718;2023-09-19T13:55:47;19.80;99.90
20560;DHT22;10438;51.454;6.718;2023-09-19T13:58:14;19.80;99.90
20560;DHT22;10438;51.454;6.718;2023-09-19T14:00:39;19.90;99.90
20560;DHT22;10438;51.454;6.718;2023-09-19T14:03:05;19.90;99.90
20560;DHT22;10438;51.454;6.718;2023-09-19T14:05:31;19.90;99.90
20560;DHT22;10438;51.454;6.718;2023-09-19T14:07:57;19.80;99.90
20560;DHT22;10438;51.454;6.718;2023-09-19T14:10:23;19.80;99.90
20560;DHT22;10438;51.454;6.718;2023-09-19T14:12:49;19.80;99.90
20560;DHT22;10438;51.454;6.718;2023-09-19T14:15:15;19.80;99.90
20560;DHT22;10438;51.454;6.718;2023-09-19T14:17:40;19.80;99.90
20560;DHT22;10438;51.454;6.718;2023-09-19T14:20:13;19.70;99.90
20560;DHT22;10438;51.454;6.718;2023-09-19T14:22:39;19.70;99.90
20560;DHT22;10438;51.454;6.718;2023-09-19T14:25:05;19.70;99.90
20560;DHT22;10438;51.454;6.718;2023-09-19T14:27:31;19.70;99.90
20560;DHT22;10438;51.454;6.718;2023-09-19T14:29:56;19.70;99.90
20560;DHT22;10438;51.454;6.718;2023-09-19T14:32:23;19.80;99.90
20560;DHT22;10438;51.454;6.718;2023-09-19T14:34:48;19.90;99.90
20560;DHT22;10438;51.454;6.718;2023-09-19T14:37:14;20.00;99.90
20560;DHT22;10438;51.454;6.718;2023-09-19T14:39:42;20.10;99.90
20560;DHT22;10438;51.454;6.718;2023-09-19T14:42:10;20.10;99.90
20560;DHT22;10438;51.454;6.718;2023-09-19T14:44:36;20.00;99.90
20560;DHT22;10438;51.454;6.718;2023-09-19T14:47:03;19.90;99.90
20560;DHT22;10438;51.454;6.718;2023-09-19T14:49:30;19.90;99.90
20560;DHT22;10438;51.454;6.718;2023-09-19T14:51:55;19.90;99.90
20560;DHT22;10438;51.454;6.718;2023-09-19T14:54:21;19.80;99.90
20560;DHT22;10438;51.454;6.718;2023-09-19T14:56:47;19.80;99.90
20560;DHT22;10438;51.454;6.718;2023-09-19T14:59:19;19.70;99.90
20560;DHT22;10438;51.454;6.718;2023-09-19T15:01:45;19.60;99.90
20560;DHT22;10438;51.454;6.718;2023-09-19T15:04:11;19.60;99.90
20560;DHT22;10438;51.454;6.718;2023-09-19T15:06:36;19.50;99.90
20560;DHT22;10438;51.454;6.718;2023-09-19T15:09:02;19.50;99.90
20560;DHT22;10438;51.454;6.718;2023-09-19T15:11:30;19.60;99.90
20560;DHT22;10438;51.454;6.718;2023-09-19T15:13:55;19.60;99.90
20560;DHT22;10438;51.454;6.718;2023-09-19T15:16:22;19.60;99.90
20560;DHT22;10438;51.454;6.718;2023-09-19T15:18:47;19.70;99.90
20560;DHT22;10438;51.454;6.718;2023-09-19T15:21:13;19.70;99.90
20560;DHT22;10438;51.454;6.718;2023-09-19T15:23:41;19.70;99.90
20560;DHT22;10438;51.454;6.718;2023-09-19T15:26:09;19.70;99.90
20560;DHT22;10438;51.454;6.718;2023-09-19T15:28:35;19.80;99.90
20560;DHT22;10438;51.454;6.718;2023-09-19T15:31:08;19.90;99.90
20560;DHT22;10438;51.454;6.718;2023-09-19T15:33:34;20.00;99.90
20560;DHT22;10438;51.454;6.718;2023-09-19T15:36:07;20.20;99.90
20560;DHT22;10438;51.454;6.718;2023-09-19T15:41:23;20.30;99.90
20560;DHT22;10438;51.454;6.718;2023-09-19T15:43:49;20.30;99.90
20560;DHT22;10438;51.454;6.718;2023-09-19T15:46:14;20.30;99.90
20560;DHT22;10438;51.454;6.718;2023-09-19T15:48:41;20.20;99.90
20560;DHT22;10438;51.454;6.718;2023-09-19T15:51:06;20.10;99.90
20560;DHT22;10438;51.454;6.718;2023-09-19T15:53:43;20.00;99.90
20560;DHT22;10438;51.454;6.718;2023-09-19T15:56:10;20.00;99.90
20560;DHT22;10438;51.454;6.718;2023-09-19T15:58:40;19.90;99.90
20560;DHT22;10438;51.454;6.718;2023-09-19T16:01:06;19.90;99.90
20560;DHT22;10438;51.454;6.718;2023-09-19T16:03:37;19.80;99.90
20560;DHT22;10438;51.454;6.718;2023-09-19T16:06:08;19.70;99.90
20560;DHT22;10438;51.454;6.718;2023-09-19T16:08:35;19.70;99.90
20560;DHT22;10438;51.454;6.718;2023-09-19T16:11:01;19.70;99.90
20560;DHT22;10438;51.454;6.718;2023-09-19T16:13:28;19.60;99.90
20560;DHT22;10438;51.454;6.718;2023-09-19T16:15:54;19.60;99.90
20560;DHT22;10438;51.454;6.718;2023-09-19T16:18:19;19.60;99.90
20560;DHT22;10438;51.454;6.718;2023-09-19T16:20:45;19.60;99.90
20560;DHT22;10438;51.454;6.718;2023-09-19T16:23:10;19.60;99.90
20560;DHT22;10438;51.454;6.718;2023-09-19T16:25:36;19.70;99.90
20560;DHT22;10438;51.454;6.718;2023-09-19T16:28:02;19.70;99.90
20560;DHT22;10438;51.454;6.718;2023-09-19T16:30:28;19.70;99.90
20560;DHT22;10438;51.454;6.718;2023-09-19T16:32:54;19.70;99.90
20560;DHT22;10438;51.454;6.718;2023-09-19T16:35:20;19.60;99.90
20560;DHT22;10438;51.454;6.718;2023-09-19T16:37:45;19.70;99.90
20560;DHT22;10438;51.454;6.718;2023-09-19T16:40:12;19.70;99.90
20560;DHT22;10438;51.454;6.718;2023-09-19T16:42:37;19.70;99.90
20560;DHT22;10438;51.454;6.718;2023-09-19T16:45:04;19.70;99.90